Time;durP1;ratioP1;P1;durP2;ratioP2;P2;SDS_P1;SDS_P2;PMS_P1;PMS_P2;Temp;Humidity;BMP_temperature;BMP_pressure;BME280_temperature;BME280_humidity;BME280_pressure;Samples;Min_cycle;Max_cycle;Signal;HPM_P1;HPM_P2
2022/04/09 00:00:22;;;;;;;;;;;;;;;16.88;45.87;100487.06;6266816;22;20290;-81
2022/04/09 00:02:48;;;;;;;;;;;;;;;16.86;46.15;100506.09;6265325;22;19958;-81
2022/04/09 00:05:13;;;;;;;;;;;;;;;16.87;46.19;100504.34;6290582;22;19950;-81
2022/04/09 00:07:39;;;;;;;;;;;;;;;16.85;46.21;100507.00;6290935;22;19911;-81
2022/04/09 00:10:05;;;;;;;;;;;;;;;16.85;45.85;100503.50;6318042;22;19914;-81
2022/04/09 00:12:31;;;;;;;;;;;;;;;16.85;46.07;100509.59;6290484;22;20278;-81
2022/04/09 00:14:56;;;;;;;;;;;;;;;16.85;46.38;100508.72;6265789;22;19978;-81
2022/04/09 00:17:21;;;;;;;;;;;;;;;16.84;46.17;100513.06;6290176;22;20311;-81
2022/04/09 00:19:47;;;;;;;;;;;;;;;16.85;45.88;100516.50;6291017;22;19929;-81
2022/04/09 00:22:12;;;;;;;;;;;;;;;16.83;46.10;100516.56;6262943;22;19918;-81
2022/04/09 00:24:38;;;;;;;;;;;;;;;16.83;46.18;100515.66;6262251;22;20327;-81
2022/04/09 00:27:03;;;;;;;;;;;;;;;16.82;45.98;100514.81;6262732;22;20346;-81
2022/04/09 00:29:28;;;;;;;;;;;;;;;16.82;46.01;100519.16;6315877;22;19959;-81
2022/04/09 00:31:53;;;;;;;;;;;;;;;16.82;46.02;100516.56;6287963;22;19921;-81
2022/04/09 00:34:19;;;;;;;;;;;;;;;16.83;45.97;100526.94;6288704;22;19911;-80
2022/04/09 00:36:44;;;;;;;;;;;;;;;16.83;46.10;100528.66;6262081;22;19915;-81
2022/04/09 00:39:09;;;;;;;;;;;;;;;16.83;46.07;100533.84;6287832;22;19929;-81
2022/04/09 00:41:35;;;;;;;;;;;;;;;16.84;45.77;100540.78;6289328;22;20274;-81
2022/04/09 00:44:00;;;;;;;;;;;;;;;16.83;45.99;100544.25;6289990;22;19907;-81
2022/04/09 00:46:25;;;;;;;;;;;;;;;16.82;45.80;100539.94;6291584;22;19914;-80
2022/04/09 00:48:50;;;;;;;;;;;;;;;16.82;45.81;100547.75;6269859;22;19964;-81
2022/04/09 00:51:16;;;;;;;;;;;;;;;16.82;45.85;100546.00;6270160;22;19918;-81
2022/04/09 00:53:42;;;;;;;;;;;;;;;16.82;46.02;100560.72;6296227;22;19990;-81
2022/04/09 00:56:21;;;;;;;;;;;;;;;16.82;45.58;100553.78;6268258;22;19917;-81
2022/04/09 00:58:47;;;;;;;;;;;;;;;16.82;45.95;100563.34;6293979;22;19990;-80
2022/04/09 01:01:12;;;;;;;;;;;;;;;16.81;45.81;100565.09;6291229;22;19906;-80
2022/04/09 01:03:38;;;;;;;;;;;;;;;16.82;45.74;100577.19;6265589;22;20339;-80
2022/04/09 01:06:05;;;;;;;;;;;;;;;16.81;45.80;100578.06;6291377;22;20373;-81
2022/04/09 01:08:30;;;;;;;;;;;;;;;16.80;45.73;100578.94;6292296;22;19930;-81
2022/04/09 01:10:56;;;;;;;;;;;;;;;16.79;45.64;100584.13;6266333;22;19914;-80
2022/04/09 01:13:21;;;;;;;;;;;;;;;16.79;45.97;100585.00;6266208;22;19917;-81
2022/04/09 01:15:47;;;;;;;;;;;;;;;16.80;45.72;100581.53;6267012;22;19917;-80
2022/04/09 01:18:12;;;;;;;;;;;;;;;16.80;45.68;100589.31;6262651;22;19922;-80
2022/04/09 01:20:37;;;;;;;;;;;;;;;16.79;45.69;100594.53;6259116;22;19934;-80
2022/04/09 01:23:03;;;;;;;;;;;;;;;16.79;45.63;100590.19;6260090;22;20311;-81
2022/04/09 01:25:28;;;;;;;;;;;;;;;16.80;45.41;100607.53;6286279;22;19907;-81
2022/04/09 01:27:53;;;;;;;;;;;;;;;16.80;45.61;100640.44;6285563;22;19942;-81
2022/04/09 01:30:19;;;;;;;;;;;;;;;16.79;45.30;100634.38;6284900;22;19994;-80
2022/04/09 01:32:45;;;;;;;;;;;;;;;16.78;45.48;100623.97;6311571;22;19960;-81
2022/04/09 01:35:10;;;;;;;;;;;;;;;16.76;45.82;100621.38;6283473;22;19907;-80
2022/04/09 01:37:35;;;;;;;;;;;;;;;16.76;45.67;100623.13;6284468;22;19926;-81
2022/04/09 01:40:01;;;;;;;;;;;;;;;16.77;45.28;100622.28;6311363;22;19911;-81
2022/04/09 01:42:26;;;;;;;;;;;;;;;16.78;45.65;100629.16;6258563;22;19918;-80
2022/04/09 01:44:55;;;;;;;;;;;;;;;16.76;45.51;100629.19;6312959;22;19919;-81
2022/04/09 01:47:20;;;;;;;;;;;;;;;16.77;45.67;100624.88;6285160;22;19946;-80
2022/04/09 01:49:45;;;;;;;;;;;;;;;16.76;45.82;100631.78;6284482;22;19917;-81
2022/04/09 01:52:11;;;;;;;;;;;;;;;16.76;45.40;100638.72;6311057;22;19914;-80
2022/04/09 01:54:36;;;;;;;;;;;;;;;16.76;45.58;100633.53;6257643;22;20250;-80
2022/04/09 01:57:01;;;;;;;;;;;;;;;16.76;45.64;100638.72;6259672;22;19959;-81
2022/04/09 01:59:26;;;;;;;;;;;;;;;16.76;45.67;100639.56;6259190;22;19911;-80
2022/04/09 02:01:52;;;;;;;;;;;;;;;16.75;45.52;100647.41;6257955;22;20013;-80
2022/04/09 02:04:17;;;;;;;;;;;;;;;16.75;45.76;100650.84;6258154;22;19915;-80
2022/04/09 02:06:42;;;;;;;;;;;;;;;16.76;45.41;100662.09;6283061;22;20228;-80
2022/04/09 02:09:13;;;;;;;;;;;;;;;16.75;45.71;100655.19;6257585;22;19911;-80
2022/04/09 02:11:39;;;;;;;;;;;;;;;16.75;45.49;100650.84;6258460;22;19986;-81
2022/04/09 02:14:05;;;;;;;;;;;;;;;16.74;45.71;100658.66;6284111;22;19914;-80
2022/04/09 02:16:30;;;;;;;;;;;;;;;16.74;45.73;100675.09;6260053;22;19914;-81
2022/04/09 02:18:56;;;;;;;;;;;;;;;16.74;45.78;100661.25;6263821;22;20073;-80
2022/04/09 02:21:21;;;;;;;;;;;;;;;16.74;45.66;100669.06;6262371;22;19917;-80
2022/04/09 02:23:46;;;;;;;;;;;;;;;16.74;45.66;100677.69;6262621;22;20237;-80
2022/04/09 02:26:11;;;;;;;;;;;;;;;16.73;45.46;100688.13;6315907;22;19938;-80
2022/04/09 02:28:38;;;;;;;;;;;;;;;16.74;45.50;100710.63;6288364;22;19911;-80
2022/04/09 02:31:03;;;;;;;;;;;;;;;16.74;45.79;100710.63;6263402;22;19938;-80
2022/04/09 02:33:28;;;;;;;;;;;;;;;16.74;45.44;100700.22;6287889;22;19914;-79
2022/04/09 02:35:53;;;;;;;;;;;;;;;16.72;45.69;100697.63;6290525;22;19907;-80
2022/04/09 02:38:19;;;;;;;;;;;;;;;16.71;45.40;100697.66;6289100;22;19911;-80
2022/04/09 02:40:44;;;;;;;;;;;;;;;16.71;45.74;100692.47;6264611;22;19911;-80
2022/04/09 02:43:10;;;;;;;;;;;;;;;16.70;45.54;100699.41;6264356;22;19918;-80
2022/04/09 02:45:35;;;;;;;;;;;;;;;16.70;45.56;100706.31;6264150;22;19941;-80
2022/04/09 02:48:00;;;;;;;;;;;;;;;16.71;45.38;100705.47;6288757;22;19918;-80
2022/04/09 02:50:26;;;;;;;;;;;;;;;16.70;45.83;100708.91;6314974;22;19911;-80
2022/04/09 02:52:51;;;;;;;;;;;;;;;16.69;45.42;100705.47;6263216;22;19918;-80
2022/04/09 02:55:16;;;;;;;;;;;;;;;16.69;45.62;100725.41;6263460;22;19911;-80
2022/04/09 02:57:41;;;;;;;;;;;;;;;16.69;45.65;100717.59;6290100;22;19915;-80
2022/04/09 03:00:13;;;;;;;;;;;;;;;16.67;45.51;100728.84;6262879;22;19938;-80
2022/04/09 03:02:39;;;;;;;;;;;;;;;16.67;45.61;100725.41;6289843;22;19914;-80
2022/04/09 03:05:05;;;;;;;;;;;;;;;16.67;45.77;100738.41;6289499;22;19911;-80
2022/04/09 03:07:31;;;;;;;;;;;;;;;16.66;45.66;100740.13;6288252;22;19907;-80
2022/04/09 03:09:56;;;;;;;;;;;;;;;16.65;45.64;100741.00;6288857;22;19907;-80
2022/04/09 03:12:21;;;;;;;;;;;;;;;16.65;45.58;100750.53;6315695;22;19914;-80
2022/04/09 03:14:46;;;;;;;;;;;;;;;16.65;45.67;100743.59;6262740;22;19911;-80
2022/04/09 03:17:12;;;;;;;;;;;;;;;16.65;45.78;100751.38;6264634;22;20323;-80
2022/04/09 03:19:37;;;;;;;;;;;;;;;16.65;45.38;100753.97;6301948;22;19907;-81
2022/04/09 03:22:03;;;;;;;;;;;;;;;16.65;45.73;100758.31;6331734;22;19911;-81
2022/04/09 03:24:29;;;;;;;;;;;;;;;16.65;45.50;100769.56;6301662;22;19907;-81
2022/04/09 03:26:54;;;;;;;;;;;;;;;16.65;45.60;100760.94;6268215;22;19967;-80
2022/04/09 03:29:19;;;;;;;;;;;;;;;16.64;45.75;100769.59;6305158;22;19947;-81
2022/04/09 03:31:44;;;;;;;;;;;;;;;16.64;45.56;100767.00;6280548;22;19901;-81
2022/04/09 03:34:10;;;;;;;;;;;;;;;16.63;45.65;100762.66;6299623;22;19914;-80
2022/04/09 03:36:36;;;;;;;;;;;;;;;16.63;45.76;100762.66;6323688;22;19917;-80
2022/04/09 03:39:02;;;;;;;;;;;;;;;16.63;45.57;100768.72;6297858;22;19911;-80
2022/04/09 03:41:27;;;;;;;;;;;;;;;16.62;45.66;100776.53;6325179;22;19907;-80
2022/04/09 03:43:53;;;;;;;;;;;;;;;16.63;45.61;100775.66;6271505;22;19910;-80
2022/04/09 03:46:19;;;;;;;;;;;;;;;16.62;45.68;100780.00;6270947;22;19895;-80
2022/04/09 03:48:45;;;;;;;;;;;;;;;16.62;45.57;100777.41;6322247;22;19915;-80
2022/04/09 03:51:10;;;;;;;;;;;;;;;16.62;45.79;100786.94;6295071;22;19907;-81
2022/04/09 03:53:36;;;;;;;;;;;;;;;16.62;45.63;100787.78;6268335;22;19911;-80
2022/04/09 03:56:01;;;;;;;;;;;;;;;16.62;45.30;100787.78;6296387;22;20280;-80
2022/04/09 03:58:26;;;;;;;;;;;;;;;16.61;45.50;100796.47;6295386;22;19911;-80
2022/04/09 04:00:52;;;;;;;;;;;;;;;16.61;45.44;100800.78;6269805;22;19933;-80
2022/04/09 04:03:19;;;;;;;;;;;;;;;16.61;45.60;100793.00;6294375;22;19914;-79
2022/04/09 04:05:45;;;;;;;;;;;;;;;16.61;45.48;100798.19;6268422;22;19910;-80
2022/04/09 04:08:10;;;;;;;;;;;;;;;16.60;45.74;100797.34;6293396;22;19972;-80
2022/04/09 04:10:37;;;;;;;;;;;;;;;16.61;45.42;100801.69;6294422;22;19942;-80
2022/04/09 04:13:03;;;;;;;;;;;;;;;16.61;45.42;100805.97;6293432;22;20217;-81
2022/04/09 04:15:28;;;;;;;;;;;;;;;16.60;45.76;100817.25;6292614;22;19907;-80
2022/04/09 04:17:53;;;;;;;;;;;;;;;16.59;45.67;100813.81;6323069;22;20236;-80
2022/04/09 04:20:19;;;;;;;;;;;;;;;16.58;45.33;100819.00;6293683;22;19911;-80
2022/04/09 04:22:44;;;;;;;;;;;;;;;16.59;45.47;100823.31;6267355;22;19918;-80
2022/04/09 04:25:09;;;;;;;;;;;;;;;16.58;45.38;100822.47;6267664;22;19911;-80
2022/04/09 04:27:40;;;;;;;;;;;;;;;16.58;45.26;100825.06;6269862;22;19911;-80
2022/04/09 04:30:06;;;;;;;;;;;;;;;16.57;45.50;100827.66;6293373;22;19914;-81
2022/04/09 04:32:31;;;;;;;;;;;;;;;16.57;45.33;100827.66;6294663;22;19915;-79
2022/04/09 04:34:56;;;;;;;;;;;;;;;16.56;45.39;100832.00;6266743;22;19911;-80
2022/04/09 04:37:21;;;;;;;;;;;;;;;16.56;45.15;100834.59;6268360;22;19935;-80
2022/04/09 04:39:47;;;;;;;;;;;;;;;16.57;45.51;100843.25;6293147;22;19907;-80
2022/04/09 04:42:12;;;;;;;;;;;;;;;16.57;45.32;100835.44;6291705;22;19910;-80
2022/04/09 04:44:37;;;;;;;;;;;;;;;16.58;45.29;100842.38;6267250;22;19925;-80
2022/04/09 04:47:03;;;;;;;;;;;;;;;16.56;45.38;100850.19;6320307;22;19907;-80
2022/04/09 04:49:29;;;;;;;;;;;;;;;16.57;45.19;100840.63;6293363;22;19907;-80
2022/04/09 04:51:54;;;;;;;;;;;;;;;16.58;45.56;100848.44;6267271;22;19961;-80
2022/04/09 04:54:19;;;;;;;;;;;;;;;16.59;45.20;100857.97;6292614;22;19918;-80
2022/04/09 04:56:44;;;;;;;;;;;;;;;16.59;45.15;100864.88;6292557;22;19915;-80
2022/04/09 04:59:10;;;;;;;;;;;;;;;16.58;45.00;100866.63;6266897;22;19910;-80
2022/04/09 05:01:37;;;;;;;;;;;;;;;16.58;45.30;100869.22;6294817;22;19906;-81
2022/04/09 05:04:03;;;;;;;;;;;;;;;16.56;45.37;100873.56;6267818;22;19997;-80
2022/04/09 05:06:28;;;;;;;;;;;;;;;16.56;45.24;100870.09;6267871;22;20217;-80
2022/04/09 05:08:53;;;;;;;;;;;;;;;16.56;45.35;100875.31;6292533;22;20366;-81
2022/04/09 05:11:20;;;;;;;;;;;;;;;16.58;45.08;100882.22;6291627;22;19911;-80
2022/04/09 05:13:46;;;;;;;;;;;;;;;16.58;45.44;100878.75;6318368;22;20001;-80
2022/04/09 05:16:11;;;;;;;;;;;;;;;16.58;45.08;100889.16;6264825;22;19961;-80
2022/04/09 05:18:36;;;;;;;;;;;;;;;16.58;45.36;100886.56;6262301;22;19914;-80
2022/04/09 05:21:01;;;;;;;;;;;;;;;16.58;45.22;100892.59;6261766;22;19956;-80
2022/04/09 05:23:27;;;;;;;;;;;;;;;16.60;45.28;100908.19;6287359;22;19907;-81
2022/04/09 05:25:52;;;;;;;;;;;;;;;16.61;45.15;100910.78;6262614;22;19953;-81
2022/04/09 05:28:17;;;;;;;;;;;;;;;16.60;44.97;100909.06;6287257;22;20273;-81
2022/04/09 05:30:44;;;;;;;;;;;;;;;16.62;45.14;100920.31;6287717;22;19918;-80
2022/04/09 05:33:09;;;;;;;;;;;;;;;16.65;45.10;100917.69;6287525;22;19956;-80
2022/04/09 05:35:34;;;;;;;;;;;;;;;16.66;44.89;100929.81;6288305;22;19939;-80
2022/04/09 05:38:00;;;;;;;;;;;;;;;16.66;44.73;100924.63;6308036;22;19899;-82
2022/04/09 05:40:34;;;;;;;;;;;;;;;16.68;45.45;100929.81;6269109;23;19892;-80
2022/04/09 05:43:18;;;;;;;;;;;;;;;16.69;45.00;100933.28;6263615;22;19916;-84
2022/04/09 05:56:33;;;;;;;;;;;;;;;16.69;45.97;100952.31;6268913;22;19929;-78
2022/04/09 05:58:58;;;;;;;;;;;;;;;16.71;45.71;100973.97;6257409;23;19931;-80
2022/04/09 06:01:23;;;;;;;;;;;;;;;16.72;45.61;100972.22;6259489;22;19891;-79
2022/04/09 06:04:09;;;;;;;;;;;;;;;16.73;45.70;100968.78;6266607;23;19922;-81
2022/04/09 06:06:37;;;;;;;;;;;;;;;16.76;45.66;100968.75;6255509;23;19978;-78
2022/04/09 06:09:10;;;;;;;;;;;;;;;16.80;45.57;100967.91;6255041;23;19919;-81
2022/04/09 06:14:57;;;;;;;;;;;;;;;16.97;45.37;100981.69;6266603;22;19927;-80
2022/04/09 06:17:26;;;;;;;;;;;;;;;17.94;43.18;100985.41;6239908;23;19916;-82
2022/04/09 06:19:51;;;;;;;;;;;;;;;18.64;41.42;100981.22;6226384;23;19914;-85
2022/04/09 06:22:18;;;;;;;;;;;;;;;18.52;41.69;100989.19;6272239;22;20232;-83
2022/04/09 06:24:45;;;;;;;;;;;;;;;18.02;42.71;100994.03;6202412;23;19911;-81
2022/04/09 06:27:12;;;;;;;;;;;;;;;18.22;42.58;101001.66;6258712;23;19931;-82
2022/04/09 06:29:37;;;;;;;;;;;;;;;18.33;42.21;100996.34;6258686;23;19914;-80
2022/04/09 06:32:29;;;;;;;;;;;;;;;19.04;40.46;100992.06;6235307;23;19908;-84
2022/04/09 06:40:34;;;;;;;;;;;;;;;17.43;45.04;101011.78;6253241;22;20347;-81
2022/04/09 07:32:07;;;;;;;;;;;;;;;22.01;34.34;101067.66;6275656;22;19903;-89
2022/04/09 07:34:32;;;;;;;;;;;;;;;24.50;29.46;101070.06;6280076;22;19918;-88
2022/04/09 07:36:57;;;;;;;;;;;;;;;25.39;27.83;101065.06;6259075;22;19997;-92
2022/04/09 07:39:22;;;;;;;;;;;;;;;25.61;27.55;101070.34;6265945;22;19911;-87
2022/04/09 07:41:48;;;;;;;;;;;;;;;25.08;28.40;101062.69;6264767;22;19933;-91
2022/04/09 07:44:13;;;;;;;;;;;;;;;24.98;28.12;101071.88;6259815;22;19915;-91
2022/04/09 07:46:39;;;;;;;;;;;;;;;25.08;28.15;101069.72;6260048;22;19911;-92
2022/04/09 07:49:04;;;;;;;;;;;;;;;21.32;31.81;101074.47;6284296;22;19938;-91
2022/04/09 07:51:30;;;;;;;;;;;;;;;18.97;35.00;101086.06;6285700;22;19907;-90
2022/04/09 08:01:42;;;;;;;;;;;;;;;20.74;34.52;101102.63;6276231;22;19919;-85
2022/04/09 08:06:42;;;;;;;;;;;;;;;23.25;30.33;101094.16;6289667;22;19918;-94
2022/04/09 08:09:08;;;;;;;;;;;;;;;23.89;29.34;101096.59;6259032;22;19985;-92
2022/04/09 08:11:33;;;;;;;;;;;;;;;21.95;31.99;101094.88;6260326;22;19911;-91
2022/04/09 08:13:59;;;;;;;;;;;;;;;19.07;38.21;101122.44;6268969;22;19931;-89
2022/04/09 12:30:00;;;;;;;;;;;;;;;17.48;43.05;101414.19;6297392;22;19961;31
2022/04/09 13:23:28;;;;;;;;;;;;;;;18.14;43.48;101448.84;6328323;22;19957;-81
2022/04/09 13:25:55;;;;;;;;;;;;;;;18.14;49.31;101464.47;6304701;22;19942;-79
2022/04/09 13:28:28;;;;;;;;;;;;;;;17.83;54.38;101462.81;6322981;22;19919;-81
2022/04/09 13:31:17;;;;;;;;;;;;;;;17.56;55.65;101461.03;6322960;22;19910;-80
2022/04/09 15:04:41;;;;;;;;;;;;;;;16.16;57.39;101496.88;6258439;22;19923;-83
2022/04/09 15:07:07;;;;;;;;;;;;;;;16.31;53.06;101508.19;6299620;22;19963;-83
2022/04/09 15:09:56;;;;;;;;;;;;;;;16.37;55.18;101503.91;6280348;22;19930;-81
2022/04/09 15:12:33;;;;;;;;;;;;;;;16.42;57.50;101512.63;6244838;22;20310;-81
2022/04/09 15:18:22;;;;;;;;;;;;;;;16.15;57.01;101507.25;6304649;22;19921;-83
2022/04/09 15:26:58;;;;;;;;;;;;;;;16.12;56.61;101515.03;6225978;22;19923;-82
2022/04/09 15:31:59;;;;;;;;;;;;;;;16.07;56.71;101540.06;6306120;22;19918;-83
2022/04/09 15:34:24;;;;;;;;;;;;;;;16.07;56.93;101534.88;6310601;22;19907;-83
2022/04/09 15:39:38;;;;;;;;;;;;;;;15.95;61.12;101538.25;6302089;22;19979;-82
2022/04/09 15:42:05;;;;;;;;;;;;;;;16.06;57.19;101531.41;6304902;22;19911;-82
2022/04/09 15:44:30;;;;;;;;;;;;;;;16.06;57.42;101530.53;6307091;22;19907;-83
2022/04/09 15:46:56;;;;;;;;;;;;;;;16.07;58.28;101534.88;6335530;22;19913;-83
2022/04/09 15:49:24;;;;;;;;;;;;;;;16.11;60.61;101534.91;6303216;22;19998;-78
2022/04/09 15:54:54;;;;;;;;;;;;;;;16.09;58.29;101544.44;6295229;22;20004;-83
2022/04/09 16:24:46;;;;;;;;;;;;;;;16.22;57.72;101577.44;6268891;22;19944;-81
2022/04/09 16:27:13;;;;;;;;;;;;;;;16.19;59.74;101567.00;6271700;22;19923;-84
2022/04/09 16:42:42;;;;;;;;;;;;;;;16.19;60.03;101576.53;6276579;22;20021;-82
2022/04/09 16:45:08;;;;;;;;;;;;;;;16.21;59.07;101586.06;6237914;23;19927;-83
2022/04/09 16:47:33;;;;;;;;;;;;;;;16.24;56.91;101593.00;6243787;23;19896;-84
2022/04/09 16:49:59;;;;;;;;;;;;;;;16.23;57.42;101602.53;6268127;23;19892;-85
2022/04/09 16:52:26;;;;;;;;;;;;;;;16.23;57.72;101596.47;6267137;23;19915;-85
2022/04/09 16:54:52;;;;;;;;;;;;;;;16.22;56.89;101592.13;6293170;22;19914;-83
2022/04/09 16:57:17;;;;;;;;;;;;;;;16.18;58.59;101592.97;6294283;22;19904;-84
2022/04/09 16:59:43;;;;;;;;;;;;;;;16.21;59.27;101591.25;6241931;23;19915;-84
2022/04/09 17:05:11;;;;;;;;;;;;;;;16.16;58.71;101594.69;6244283;23;19923;-80
2022/04/09 17:07:55;;;;;;;;;;;;;;;16.17;57.61;101597.28;6243931;23;19912;-86
2022/04/09 17:37:54;;;;;;;;;;;;;;;15.96;58.45;101667.16;6275492;22;19919;-85
2022/04/09 17:40:20;;;;;;;;;;;;;;;15.93;59.71;101662.81;6308211;22;19930;-85
2022/04/09 17:50:31;;;;;;;;;;;;;;;16.00;58.35;101641.28;6312577;22;19919;-85
2022/04/09 17:55:33;;;;;;;;;;;;;;;16.00;59.51;101640.38;6303752;22;19903;-86
2022/04/09 17:57:59;;;;;;;;;;;;;;;16.00;58.42;101630.91;6267003;22;19903;-86
2022/04/09 18:00:25;;;;;;;;;;;;;;;15.99;59.16;101630.88;6306204;22;19926;-85
2022/04/09 18:05:26;;;;;;;;;;;;;;;15.98;58.64;101632.59;6296786;22;19923;-86
2022/04/09 18:07:52;;;;;;;;;;;;;;;15.96;58.81;101631.72;6267355;22;19912;-85
2022/04/09 18:10:20;;;;;;;;;;;;;;;15.95;58.51;101629.09;6295744;22;19919;-85
2022/04/09 18:12:49;;;;;;;;;;;;;;;15.94;57.77;101628.25;6284265;22;19926;-85
2022/04/09 18:18:03;;;;;;;;;;;;;;;15.96;59.20;101630.81;6254669;22;19911;-85
2022/04/09 18:20:29;;;;;;;;;;;;;;;15.98;59.00;101632.59;6311283;22;19902;-85
2022/04/09 18:22:59;;;;;;;;;;;;;;;15.98;58.49;101644.69;6310964;22;19903;-85
2022/04/09 18:25:24;;;;;;;;;;;;;;;15.97;57.98;101653.34;6310749;22;19941;-85
2022/04/09 18:27:50;;;;;;;;;;;;;;;15.90;58.64;101649.81;6279501;22;19919;-84
2022/04/09 18:30:20;;;;;;;;;;;;;;;15.92;58.23;101644.66;6301997;22;19931;-84
2022/04/09 18:32:46;;;;;;;;;;;;;;;15.93;58.85;101648.97;6302533;22;19958;-85
2022/04/09 18:35:14;;;;;;;;;;;;;;;15.95;57.21;101648.13;6301893;22;19895;-85
2022/04/09 18:37:39;;;;;;;;;;;;;;;15.89;59.96;101652.41;6302056;22;19895;-85
2022/04/09 18:40:05;;;;;;;;;;;;;;;15.93;59.54;101648.97;6301282;22;19915;-85
2022/04/09 18:42:30;;;;;;;;;;;;;;;15.89;59.08;101657.59;6286917;22;20002;-77
2022/04/09 18:44:56;;;;;;;;;;;;;;;15.86;61.10;101652.38;6278991;22;20327;-77
2022/04/09 18:47:23;;;;;;;;;;;;;;;15.91;59.06;101658.47;6278704;22;20374;-77
2022/04/09 18:49:48;;;;;;;;;;;;;;;15.90;59.23;101661.94;6252851;22;19970;-77
2022/04/09 18:52:13;;;;;;;;;;;;;;;15.90;58.41;101669.72;6253120;22;19911;-77
2022/04/09 18:54:38;;;;;;;;;;;;;;;15.89;58.17;101667.97;6278480;22;20000;-77
2022/04/09 18:57:04;;;;;;;;;;;;;;;15.91;58.53;101676.66;6277781;22;19911;-77
2022/04/09 18:59:29;;;;;;;;;;;;;;;15.91;58.59;101676.66;6252791;22;19911;-77
2022/04/09 19:01:55;;;;;;;;;;;;;;;15.89;58.73;101681.81;6252674;22;19918;-77
2022/04/09 19:04:21;;;;;;;;;;;;;;;15.90;58.61;101693.94;6252931;22;19911;-77
2022/04/09 19:06:47;;;;;;;;;;;;;;;15.86;59.24;101689.56;6278036;22;19914;-78
2022/04/09 19:09:14;;;;;;;;;;;;;;;15.86;59.70;101691.31;6251241;22;19911;-78
2022/04/09 19:11:39;;;;;;;;;;;;;;;15.89;58.30;101684.41;6251867;22;19918;-78
2022/04/09 19:14:05;;;;;;;;;;;;;;;15.93;57.58;101693.09;6251234;22;19915;-77
2022/04/09 19:16:30;;;;;;;;;;;;;;;15.89;59.68;101689.59;6251169;22;20324;-77
2022/04/09 19:18:55;;;;;;;;;;;;;;;15.87;58.88;101693.91;6276534;22;19922;-77
2022/04/09 19:21:20;;;;;;;;;;;;;;;15.88;59.54;101697.38;6250997;22;19911;-77
2022/04/09 19:23:45;;;;;;;;;;;;;;;15.89;57.98;101701.72;6251262;22;19965;-78
2022/04/09 19:26:11;;;;;;;;;;;;;;;15.93;58.57;101700.88;6276310;22;19919;-77
2022/04/09 19:28:37;;;;;;;;;;;;;;;15.93;57.99;101713.88;6250818;22;19943;-78
2022/04/09 19:31:02;;;;;;;;;;;;;;;15.99;56.33;101713.94;6251292;22;19965;-77
2022/04/09 19:33:29;;;;;;;;;;;;;;;15.98;55.84;101717.38;6251001;22;19911;-77
2022/04/09 19:35:55;;;;;;;;;;;;;;;15.97;58.39;101718.25;6251633;22;19911;-77
2022/04/09 19:38:20;;;;;;;;;;;;;;;15.99;57.70;101713.94;6251517;22;19923;-77
2022/04/09 19:40:45;;;;;;;;;;;;;;;15.97;56.68;101718.25;6251281;22;20283;-77
2022/04/09 19:43:10;;;;;;;;;;;;;;;15.99;55.71;101719.13;6251045;22;19918;-77
2022/04/09 19:45:36;;;;;;;;;;;;;;;15.97;56.21;101720.84;6251781;22;20320;-77
2022/04/09 19:48:02;;;;;;;;;;;;;;;15.96;57.43;101722.56;6277087;22;19911;-77
2022/04/09 19:50:27;;;;;;;;;;;;;;;15.95;56.72;101723.41;6251388;22;19911;-77
2022/04/09 19:52:52;;;;;;;;;;;;;;;15.99;57.10;101732.13;6251687;22;19911;-77
2022/04/09 19:55:18;;;;;;;;;;;;;;;16.04;55.82;101733.91;6251026;22;20247;-77
2022/04/09 19:57:43;;;;;;;;;;;;;;;16.03;56.43;101737.34;6276734;22;19911;-78
2022/04/09 20:00:09;;;;;;;;;;;;;;;15.99;57.18;101742.50;6277037;22;19961;-77
2022/04/09 20:02:34;;;;;;;;;;;;;;;16.00;56.44;101742.53;6251769;22;19911;-77
2022/04/09 20:05:01;;;;;;;;;;;;;;;15.98;56.63;101746.84;6257524;22;19919;-78
2022/04/09 20:07:27;;;;;;;;;;;;;;;15.96;56.43;101743.34;6288150;22;19911;-78
2022/04/09 20:09:52;;;;;;;;;;;;;;;16.03;55.67;101750.34;6289054;22;19919;-77
2022/04/09 20:12:17;;;;;;;;;;;;;;;16.08;53.60;101747.78;6285667;22;19912;-77
2022/04/09 20:14:43;;;;;;;;;;;;;;;16.07;54.68;101746.06;6289334;22;19907;-78
2022/04/09 20:17:08;;;;;;;;;;;;;;;16.06;54.84;101752.09;6266971;22;19915;-78
2022/04/09 20:19:33;;;;;;;;;;;;;;;16.06;54.59;101756.44;6266358;22;19912;-78
2022/04/09 20:22:00;;;;;;;;;;;;;;;16.06;54.55;101759.03;6262432;22;19933;-77
2022/04/09 20:24:26;;;;;;;;;;;;;;;16.03;54.49;101765.91;6287255;22;19957;-77
2022/04/09 20:26:51;;;;;;;;;;;;;;;15.99;54.55;101765.88;6286387;22;19915;-77
2022/04/09 20:29:17;;;;;;;;;;;;;;;16.02;55.06;101765.88;6285804;22;20320;-78
2022/04/09 20:31:42;;;;;;;;;;;;;;;16.01;55.35;101765.03;6284589;22;19972;-77
2022/04/09 20:34:08;;;;;;;;;;;;;;;16.01;54.93;101765.03;6258841;22;19912;-77
2022/04/09 20:36:33;;;;;;;;;;;;;;;16.06;53.93;101767.69;6287172;22;20324;-77
2022/04/09 20:38:59;;;;;;;;;;;;;;;16.01;55.13;101765.03;6260090;22;19938;-77
2022/04/09 20:41:24;;;;;;;;;;;;;;;16.06;53.63;101774.59;6285598;22;19913;-77
2022/04/09 20:43:50;;;;;;;;;;;;;;;16.08;53.21;101778.94;6285326;22;19907;-77
2022/04/09 20:46:15;;;;;;;;;;;;;;;16.06;53.75;101780.66;6260114;22;19959;-77
2022/04/09 20:48:45;;;;;;;;;;;;;;;16.08;54.41;101776.34;6284074;22;19908;-78
2022/04/09 20:51:11;;;;;;;;;;;;;;;16.04;54.74;101779.75;6286128;22;20316;-77
2022/04/09 20:53:36;;;;;;;;;;;;;;;16.10;52.76;101781.56;6257667;22;19990;-78
2022/04/09 20:56:01;;;;;;;;;;;;;;;16.09;52.82;101780.72;6257023;22;19963;-78
2022/04/09 21:01:34;;;;;;;;;;;;;;;16.17;56.46;101783.38;6307722;22;19926;-80
2022/04/09 21:04:35;;;;;;;;;;;;;;;16.18;55.57;101780.81;6208658;23;19901;-82
2022/04/09 21:07:00;;;;;;;;;;;;;;;16.10;54.73;101779.84;6211897;23;19919;-82
2022/04/09 21:12:34;;;;;;;;;;;;;;;16.00;54.69;101781.47;6242340;23;19954;-85
2022/04/09 21:24:37;;;;;;;;;;;;;;;15.88;55.40;101799.47;6242303;23;19919;-86
2022/04/09 21:27:29;;;;;;;;;;;;;;;15.86;55.99;101805.50;6216177;23;19908;-86
2022/04/09 21:33:13;;;;;;;;;;;;;;;15.83;55.53;101802.03;6336028;22;19962;-84
2022/04/09 22:00:15;;;;;;;;;;;;;;;15.84;56.17;101829.72;6330782;22;19934;-84
2022/04/09 22:15:36;;;;;;;;;;;;;;;15.94;56.82;101835.91;6242275;23;19919;-83
2022/04/09 22:18:22;;;;;;;;;;;;;;;15.95;55.10;101834.19;6258067;22;19903;-82
2022/04/09 22:21:17;;;;;;;;;;;;;;;15.91;54.86;101834.97;6228769;23;20333;-81
2022/04/09 22:29:49;;;;;;;;;;;;;;;15.92;56.48;101839.34;6210479;23;19996;-82
2022/04/09 22:35:21;;;;;;;;;;;;;;;15.91;54.93;101847.97;6210558;23;19916;-82
2022/04/09 22:43:48;;;;;;;;;;;;;;;15.90;55.92;101849.69;6209042;23;19916;-82
2022/04/09 22:58:14;;;;;;;;;;;;;;;15.92;54.91;101862.69;6238413;23;20011;-81
2022/04/09 23:00:45;;;;;;;;;;;;;;;15.91;54.73;101861.81;6234180;23;19927;-82
2022/04/09 23:03:13;;;;;;;;;;;;;;;15.91;55.47;101855.75;6212077;23;19946;-81
2022/04/09 23:05:39;;;;;;;;;;;;;;;15.90;54.72;101865.28;6320999;22;19898;-81
2022/04/09 23:08:17;;;;;;;;;;;;;;;15.92;54.69;101868.75;6331466;22;20276;-81
2022/04/09 23:10:43;;;;;;;;;;;;;;;15.90;54.77;101857.47;6315837;22;19969;-81
